Time;durP1;ratioP1;P1;durP2;ratioP2;P2;SDS_P1;SDS_P2;PMS_P1;PMS_P2;Temp;Humidity;BMP_temperature;BMP_pressure;BME280_temperature;BME280_humidity;BME280_pressure;Samples;Min_cycle;Max_cycle;Signal;HPM_P1;HPM_P2
2024/03/19 00:00:19;;;;;;;44.35;21.00;;;;;;;;;;7565108;19;20026;-77
2024/03/19 00:02:51;;;;;;;37.15;19.45;;;;;;;;;;7556190;19;20096;-74
2024/03/19 00:05:22;;;;;;;40.58;21.55;;;;;;;;;;7557168;19;20018;-77
2024/03/19 00:07:54;;;;;;;37.45;19.75;;;;;;;;;;7573819;19;21097;-76
2024/03/19 00:10:26;;;;;;;37.78;18.95;;;;;;;;;;7570963;19;20535;-75
2024/03/19 00:12:57;;;;;;;40.83;20.55;;;;;;;;;;7539587;19;20014;-76
2024/03/19 00:15:29;;;;;;;40.75;20.90;;;;;;;;;;7570092;19;20029;-77
2024/03/19 00:18:01;;;;;;;43.70;21.00;;;;;;;;;;7559697;19;20019;-74
2024/03/19 00:20:32;;;;;;;39.90;20.17;;;;;;;;;;7564273;19;20022;-74
2024/03/19 00:23:04;;;;;;;45.92;22.08;;;;;;;;;;7571652;19;20022;-77
2024/03/19 00:25:35;;;;;;;36.13;19.42;;;;;;;;;;7538222;19;20018;-76
2024/03/19 00:28:07;;;;;;;39.53;20.42;;;;;;;;;;7544300;19;20052;-75
2024/03/19 00:30:39;;;;;;;39.80;20.13;;;;;;;;;;7579782;19;20025;-75
2024/03/19 00:33:11;;;;;;;40.20;20.40;;;;;;;;;;7562230;19;20010;-75
2024/03/19 00:35:42;;;;;;;41.95;19.50;;;;;;;;;;7562433;19;20019;-75
2024/03/19 00:38:14;;;;;;;44.10;21.27;;;;;;;;;;7557520;19;20013;-74
2024/03/19 00:40:46;;;;;;;59.65;23.92;;;;;;;;;;7559886;19;20354;-74
2024/03/19 00:43:17;;;;;;;46.85;21.38;;;;;;;;;;7557227;19;20904;-74
2024/03/19 00:45:49;;;;;;;38.72;20.48;;;;;;;;;;7569892;19;20759;-75
2024/03/19 00:48:21;;;;;;;38.13;20.95;;;;;;;;;;7561471;19;20019;-77
2024/03/19 00:50:52;;;;;;;51.03;22.92;;;;;;;;;;7553667;19;20629;-76
2024/03/19 00:53:24;;;;;;;52.30;22.52;;;;;;;;;;7560701;19;20026;-76
2024/03/19 00:55:55;;;;;;;42.03;21.23;;;;;;;;;;7538444;19;20022;-76
2024/03/19 00:58:27;;;;;;;55.45;23.85;;;;;;;;;;7568446;19;20019;-75
2024/03/19 01:00:59;;;;;;;43.72;20.90;;;;;;;;;;7574800;19;20060;-74
2024/03/19 01:03:32;;;;;;;36.25;19.63;;;;;;;;;;7556000;19;20018;-73
2024/03/19 01:06:04;;;;;;;39.03;20.57;;;;;;;;;;7548851;19;20018;-76
2024/03/19 01:08:36;;;;;;;49.67;22.73;;;;;;;;;;7541912;19;20971;-74
2024/03/19 01:11:07;;;;;;;51.00;21.70;;;;;;;;;;7557192;19;20645;-74
2024/03/19 01:13:39;;;;;;;49.08;22.23;;;;;;;;;;7557812;19;20306;-76
2024/03/19 01:16:11;;;;;;;41.67;21.90;;;;;;;;;;7565761;19;20306;-74
2024/03/19 01:18:42;;;;;;;38.80;21.13;;;;;;;;;;7567042;19;20033;-74
2024/03/19 01:21:14;;;;;;;50.80;22.73;;;;;;;;;;7559671;19;20154;-75
2024/03/19 01:23:45;;;;;;;44.78;20.98;;;;;;;;;;7559925;19;20055;-74
2024/03/19 01:26:18;;;;;;;41.83;21.30;;;;;;;;;;7548603;19;20022;-74
2024/03/19 01:28:49;;;;;;;61.88;24.83;;;;;;;;;;7583279;19;20407;-74
2024/03/19 01:31:22;;;;;;;60.08;24.92;;;;;;;;;;7575868;19;20023;-74
2024/03/19 01:33:54;;;;;;;51.63;23.50;;;;;;;;;;7558849;19;20030;-75
2024/03/19 01:36:25;;;;;;;60.15;25.60;;;;;;;;;;7566215;19;20028;-75
2024/03/19 01:38:57;;;;;;;48.92;23.55;;;;;;;;;;7579240;19;20995;-74
2024/03/19 01:41:28;;;;;;;51.75;23.33;;;;;;;;;;7571793;19;20014;-74
2024/03/19 01:44:00;;;;;;;51.55;23.02;;;;;;;;;;7584841;19;20017;-75
2024/03/19 01:46:32;;;;;;;68.57;27.95;;;;;;;;;;7578083;19;20018;-74
2024/03/19 01:49:05;;;;;;;65.35;26.00;;;;;;;;;;7570907;19;20041;-75
2024/03/19 01:51:37;;;;;;;88.53;30.27;;;;;;;;;;7575744;19;20036;-74
2024/03/19 01:54:10;;;;;;;53.70;24.42;;;;;;;;;;7561206;19;20850;-74
2024/03/19 01:56:42;;;;;;;70.68;28.23;;;;;;;;;;7589266;19;20015;-75
2024/03/19 01:59:13;;;;;;;61.45;26.52;;;;;;;;;;7545511;19;20011;-73
2024/03/19 02:01:45;;;;;;;63.88;25.83;;;;;;;;;;7558606;19;20019;-75
2024/03/19 02:04:16;;;;;;;76.00;29.52;;;;;;;;;;7556318;19;20010;-74
2024/03/19 02:06:48;;;;;;;78.25;29.08;;;;;;;;;;7562253;19;20022;-74
2024/03/19 02:09:19;;;;;;;65.07;26.23;;;;;;;;;;7569396;19;20035;-74
2024/03/19 02:11:51;;;;;;;79.13;28.85;;;;;;;;;;7588611;19;20115;-74
2024/03/19 02:14:22;;;;;;;69.72;28.42;;;;;;;;;;7573957;19;20026;-73
2024/03/19 02:16:53;;;;;;;92.55;31.27;;;;;;;;;;7587921;19;20029;-74
2024/03/19 02:19:25;;;;;;;99.35;34.45;;;;;;;;;;7572558;19;20018;-74
2024/03/19 02:21:57;;;;;;;86.45;30.60;;;;;;;;;;7568834;19;20054;-74
2024/03/19 02:24:28;;;;;;;67.00;28.15;;;;;;;;;;7571596;19;20014;-75
2024/03/19 02:27:00;;;;;;;67.57;28.02;;;;;;;;;;7572938;19;20019;-74
2024/03/19 02:29:32;;;;;;;88.25;31.45;;;;;;;;;;7583200;19;20097;-74
2024/03/19 02:32:04;;;;;;;55.63;25.85;;;;;;;;;;7546425;19;20022;-74
2024/03/19 02:34:36;;;;;;;91.55;31.88;;;;;;;;;;7579200;19;20022;-73
2024/03/19 02:37:07;;;;;;;74.85;27.98;;;;;;;;;;7575823;19;20086;-74
2024/03/19 02:39:39;;;;;;;89.65;31.38;;;;;;;;;;7575773;19;20048;-75
2024/03/19 02:42:10;;;;;;;51.22;24.63;;;;;;;;;;7575898;19;20022;-74
2024/03/19 02:44:42;;;;;;;68.32;26.05;;;;;;;;;;7583765;19;20025;-76
2024/03/19 02:47:13;;;;;;;73.25;28.23;;;;;;;;;;7554294;19;20102;-76
2024/03/19 02:49:45;;;;;;;71.07;27.65;;;;;;;;;;7591840;19;20187;-76
2024/03/19 02:52:17;;;;;;;59.03;24.58;;;;;;;;;;7587921;19;20075;-76
2024/03/19 02:54:48;;;;;;;71.90;26.75;;;;;;;;;;7567277;19;20011;-76
2024/03/19 02:57:20;;;;;;;98.10;32.65;;;;;;;;;;7565741;19;20018;-76
2024/03/19 02:59:52;;;;;;;81.72;29.08;;;;;;;;;;7572539;19;20014;-73
2024/03/19 03:02:23;;;;;;;103.63;32.60;;;;;;;;;;7582642;19;21059;-76
2024/03/19 03:04:55;;;;;;;90.70;32.00;;;;;;;;;;7596414;19;20019;-75
2024/03/19 03:07:26;;;;;;;84.28;30.38;;;;;;;;;;7580888;19;20007;-74
2024/03/19 03:09:57;;;;;;;84.90;29.27;;;;;;;;;;7591507;19;20036;-74
2024/03/19 03:12:29;;;;;;;80.15;28.88;;;;;;;;;;7581052;19;20013;-74
2024/03/19 03:15:01;;;;;;;83.93;28.65;;;;;;;;;;7591008;19;20272;-74
2024/03/19 03:17:33;;;;;;;78.32;27.58;;;;;;;;;;7579064;19;20029;-74
2024/03/19 03:20:05;;;;;;;56.42;23.88;;;;;;;;;;7586234;19;20015;-73
2024/03/19 03:22:37;;;;;;;60.28;23.75;;;;;;;;;;7546127;19;21377;-74
2024/03/19 03:25:11;;;;;;;52.97;23.65;;;;;;;;;;7564074;19;20232;-74
2024/03/19 03:27:43;;;;;;;73.50;27.00;;;;;;;;;;7579753;19;21627;-74
2024/03/19 03:30:15;;;;;;;70.47;27.17;;;;;;;;;;7563686;19;20962;-75
2024/03/19 03:32:46;;;;;;;83.22;28.35;;;;;;;;;;7599378;19;20109;-74
2024/03/19 03:35:18;;;;;;;89.57;30.50;;;;;;;;;;7574645;19;20490;-73
2024/03/19 03:37:50;;;;;;;87.57;29.33;;;;;;;;;;7586116;19;20922;-75
2024/03/19 03:40:24;;;;;;;77.30;28.48;;;;;;;;;;7581557;19;20029;-74
2024/03/19 03:42:55;;;;;;;;;;;;;;;;;;7584399;19;21317;-74
2024/03/19 03:45:27;;;;;;;56.30;25.02;;;;;;;;;;7579699;19;19922;-73
2024/03/19 03:47:58;;;;;;;95.47;30.75;;;;;;;;;;7580972;19;20025;-74
2024/03/19 03:50:30;;;;;;;75.03;27.42;;;;;;;;;;7565167;19;20659;-73
2024/03/19 03:53:01;;;;;;;53.58;24.48;;;;;;;;;;7584433;19;20022;-73
2024/03/19 03:55:33;;;;;;;56.40;25.10;;;;;;;;;;7559747;19;20648;-74
2024/03/19 03:58:05;;;;;;;81.00;27.15;;;;;;;;;;7568109;19;20019;-76
2024/03/19 04:00:38;;;;;;;68.95;27.25;;;;;;;;;;7561931;19;20049;-76
2024/03/19 04:03:10;;;;;;;45.88;21.67;;;;;;;;;;7571593;19;20022;-73
2024/03/19 04:05:42;;;;;;;51.35;21.92;;;;;;;;;;7553254;19;20105;-76
2024/03/19 04:08:13;;;;;;;59.55;24.00;;;;;;;;;;7583216;19;20553;-74
2024/03/19 04:10:45;;;;;;;64.65;25.23;;;;;;;;;;7570599;19;20778;-74
2024/03/19 04:13:16;;;;;;;77.95;27.45;;;;;;;;;;7577310;19;20613;-73
2024/03/19 04:15:50;;;;;;;73.18;26.77;;;;;;;;;;7573999;19;20723;-74
2024/03/19 04:18:22;;;;;;;;;;;;;;;;;;7574505;19;21259;-74
2024/03/19 04:20:53;;;;;;;60.15;24.38;;;;;;;;;;7574991;19;20569;-74
2024/03/19 04:23:25;;;;;;;83.03;28.80;;;;;;;;;;7555252;19;21015;-74
2024/03/19 04:25:56;;;;;;;55.83;23.30;;;;;;;;;;7581041;19;20019;-74
2024/03/19 04:28:28;;;;;;;55.40;24.10;;;;;;;;;;7566263;19;20521;-74
2024/03/19 04:31:00;;;;;;;51.35;22.70;;;;;;;;;;7584841;19;20036;-74
2024/03/19 04:33:31;;;;;;;75.15;28.13;;;;;;;;;;7568432;19;20018;-74
2024/03/19 04:36:03;;;;;;;61.33;25.73;;;;;;;;;;7582086;19;20177;-75
2024/03/19 04:38:34;;;;;;;51.13;23.40;;;;;;;;;;7559564;19;20014;-74
2024/03/19 04:41:06;;;;;;;53.10;23.10;;;;;;;;;;7567482;19;20023;-75
2024/03/19 04:43:38;;;;;;;58.65;22.65;;;;;;;;;;7555475;19;20790;-74
2024/03/19 04:46:09;;;;;;;50.58;22.30;;;;;;;;;;7547988;19;20015;-75
2024/03/19 04:48:41;;;;;;;52.75;23.48;;;;;;;;;;7563399;19;20015;-75
2024/03/19 04:51:14;;;;;;;105.22;30.65;;;;;;;;;;7575416;19;20924;-73
2024/03/19 04:53:45;;;;;;;58.97;24.25;;;;;;;;;;7559722;19;20026;-75
2024/03/19 04:56:17;;;;;;;57.45;23.15;;;;;;;;;;7551798;19;20575;-73
2024/03/19 04:58:49;;;;;;;59.75;23.80;;;;;;;;;;7568491;19;20034;-74
2024/03/19 05:01:22;;;;;;;75.38;27.42;;;;;;;;;;7581563;19;20033;-74
2024/03/19 05:03:53;;;;;;;83.25;28.30;;;;;;;;;;7569938;19;20022;-74
2024/03/19 05:06:25;;;;;;;55.58;23.52;;;;;;;;;;7587974;19;20023;-74
2024/03/19 05:08:57;;;;;;;64.05;24.40;;;;;;;;;;7580924;19;20014;-74
2024/03/19 05:11:29;;;;;;;66.40;26.05;;;;;;;;;;7558315;19;20032;-74
2024/03/19 05:14:01;;;;;;;102.90;30.45;;;;;;;;;;7569542;19;20014;-74
2024/03/19 05:16:32;;;;;;;86.60;29.45;;;;;;;;;;7554774;19;21099;-73
2024/03/19 05:19:04;;;;;;;38.25;16.75;;;;;;;;;;7571435;19;20010;-74
2024/03/19 05:21:36;;;;;;;53.40;22.55;;;;;;;;;;7571917;19;20022;-75
2024/03/19 05:24:07;;;;;;;54.78;19.05;;;;;;;;;;7573983;19;20700;-75
2024/03/19 05:26:39;;;;;;;47.00;20.70;;;;;;;;;;7558548;19;20021;-74
2024/03/19 05:29:11;;;;;;;57.15;22.08;;;;;;;;;;7574688;19;20286;-74
2024/03/19 05:31:43;;;;;;;47.88;21.20;;;;;;;;;;7559602;19;20022;-74
2024/03/19 05:34:14;;;;;;;85.40;25.38;;;;;;;;;;7570988;19;21274;-75
2024/03/19 05:36:46;;;;;;;39.95;19.10;;;;;;;;;;7573519;19;20602;-73
2024/03/19 05:39:18;;;;;;;49.67;21.60;;;;;;;;;;7556078;19;20014;-76
2024/03/19 05:41:50;;;;;;;68.82;23.88;;;;;;;;;;7570105;19;20043;-73
2024/03/19 05:44:22;;;;;;;133.40;33.75;;;;;;;;;;7551923;19;20007;-73
2024/03/19 05:46:53;;;;;;;45.20;20.83;;;;;;;;;;7576721;19;20022;-73
2024/03/19 05:49:25;;;;;;;52.35;21.10;;;;;;;;;;7573600;19;20018;-72
2024/03/19 05:51:57;;;;;;;52.78;21.95;;;;;;;;;;7548275;19;20920;-73
2024/03/19 05:54:28;;;;;;;42.08;19.33;;;;;;;;;;7546934;19;20014;-73
2024/03/19 05:57:00;;;;;;;55.90;22.40;;;;;;;;;;7548045;19;20276;-73
2024/03/19 05:59:32;;;;;;;43.25;19.92;;;;;;;;;;7539159;19;20038;-75
2024/03/19 06:02:07;;;;;;;64.60;23.85;;;;;;;;;;7554998;19;20019;-75
2024/03/19 06:04:38;;;;;;;35.30;18.15;;;;;;;;;;7541724;19;20015;-74
2024/03/19 06:07:09;;;;;;;52.00;21.15;;;;;;;;;;7529425;19;20018;-74
2024/03/19 06:09:43;;;;;;;34.67;18.08;;;;;;;;;;7541850;19;20477;-73
2024/03/19 06:12:15;;;;;;;34.58;16.80;;;;;;;;;;7515948;19;20830;-74
2024/03/19 06:14:47;;;;;;;32.72;16.25;;;;;;;;;;7546955;19;20019;-75
2024/03/19 06:17:18;;;;;;;29.50;15.35;;;;;;;;;;7537524;19;20856;-73
2024/03/19 06:19:50;;;;;;;31.48;16.00;;;;;;;;;;7553520;19;20097;-74
2024/03/19 06:22:21;;;;;;;25.58;15.43;;;;;;;;;;7546568;19;20626;-74
2024/03/19 06:24:53;;;;;;;51.60;20.48;;;;;;;;;;7541171;19;21287;-73
2024/03/19 06:27:25;;;;;;;30.17;14.52;;;;;;;;;;7528209;19;20026;-74
2024/03/19 06:29:56;;;;;;;27.92;15.05;;;;;;;;;;7557348;19;20010;-74
2024/03/19 06:32:28;;;;;;;29.05;15.80;;;;;;;;;;7525315;19;20051;-73
2024/03/19 06:34:59;;;;;;;27.08;14.40;;;;;;;;;;7523573;19;20018;-73
2024/03/19 06:37:31;;;;;;;32.28;16.88;;;;;;;;;;7555204;19;20018;-73
2024/03/19 06:40:05;;;;;;;34.17;18.58;;;;;;;;;;7562547;19;20018;-72
2024/03/19 06:42:37;;;;;;;35.92;17.92;;;;;;;;;;7577962;19;20427;-74
2024/03/19 06:45:09;;;;;;;38.15;19.33;;;;;;;;;;7579172;19;20173;-74
2024/03/19 06:47:41;;;;;;;31.55;17.38;;;;;;;;;;7583298;19;20122;-73
2024/03/19 06:50:13;;;;;;;36.53;19.35;;;;;;;;;;7591516;19;20014;-73
2024/03/19 06:52:45;;;;;;;44.75;20.27;;;;;;;;;;7584421;19;20022;-74
2024/03/19 06:55:21;;;;;;;48.25;21.30;;;;;;;;;;7579099;19;20018;-73
2024/03/19 06:57:52;;;;;;;49.63;21.55;;;;;;;;;;7585842;19;20014;-73
2024/03/19 07:00:26;;;;;;;58.90;24.23;;;;;;;;;;7589575;19;20672;-74
2024/03/19 07:02:58;;;;;;;;;;;;;;;;;;7592985;19;20051;-72
2024/03/19 07:05:30;;;;;;;44.28;20.33;;;;;;;;;;7567664;19;19932;-73
2024/03/19 07:08:01;;;;;;;40.83;20.20;;;;;;;;;;7564400;19;20022;-74
2024/03/19 07:10:33;;;;;;;41.67;20.70;;;;;;;;;;7576327;19;20019;-74
2024/03/19 07:13:05;;;;;;;40.17;19.85;;;;;;;;;;7577122;19;20018;-74
2024/03/19 07:15:37;;;;;;;47.13;22.43;;;;;;;;;;7575207;19;20033;-73
2024/03/19 07:18:09;;;;;;;46.65;21.13;;;;;;;;;;7576301;19;20014;-73
2024/03/19 07:20:42;;;;;;;44.97;21.77;;;;;;;;;;7574621;19;20729;-72
2024/03/19 07:23:15;;;;;;;43.58;21.55;;;;;;;;;;7584076;19;20023;-75
2024/03/19 07:25:46;;;;;;;50.20;23.73;;;;;;;;;;7581271;19;20031;-74
2024/03/19 07:28:18;;;;;;;48.55;22.65;;;;;;;;;;7586630;19;20018;-73
2024/03/19 07:30:51;;;;;;;46.28;22.42;;;;;;;;;;7570152;19;20787;-73
2024/03/19 07:33:22;;;;;;;44.33;22.67;;;;;;;;;;7589332;19;20011;-74
2024/03/19 07:35:54;;;;;;;49.45;22.83;;;;;;;;;;7583428;19;20014;-74
2024/03/19 07:38:26;;;;;;;42.40;21.60;;;;;;;;;;7589802;19;20010;-73
2024/03/19 07:40:57;;;;;;;37.35;20.20;;;;;;;;;;7563164;19;20010;-73
2024/03/19 07:43:29;;;;;;;45.97;21.35;;;;;;;;;;7573128;19;20123;-74
2024/03/19 07:46:00;;;;;;;45.40;21.83;;;;;;;;;;7575074;19;20021;-74
2024/03/19 07:48:32;;;;;;;54.17;24.40;;;;;;;;;;7585978;19;20029;-75
2024/03/19 07:51:04;;;;;;;50.95;23.63;;;;;;;;;;7581278;19;20056;-73
2024/03/19 07:53:35;;;;;;;46.72;22.13;;;;;;;;;;7569883;19;20796;-74
2024/03/19 07:56:08;;;;;;;44.63;21.90;;;;;;;;;;7585117;19;20022;-73
2024/03/19 07:58:40;;;;;;;49.35;21.15;;;;;;;;;;7573651;19;20456;-73
2024/03/19 08:01:12;;;;;;;43.38;21.15;;;;;;;;;;7589929;19;20665;-74
2024/03/19 08:03:45;;;;;;;46.92;22.75;;;;;;;;;;7578584;19;20017;-73
2024/03/19 08:06:16;;;;;;;38.97;20.17;;;;;;;;;;7571749;19;20018;-74
2024/03/19 08:08:48;;;;;;;51.15;22.15;;;;;;;;;;7560600;19;20135;-73
2024/03/19 08:11:19;;;;;;;43.00;20.17;;;;;;;;;;7578208;19;20014;-73
2024/03/19 08:13:51;;;;;;;39.90;19.73;;;;;;;;;;7565159;19;20030;-75
2024/03/19 08:16:22;;;;;;;36.13;19.85;;;;;;;;;;7576638;19;20045;-73
2024/03/19 08:18:54;;;;;;;45.28;21.42;;;;;;;;;;7566377;19;20361;-74
2024/03/19 08:21:26;;;;;;;37.38;18.35;;;;;;;;;;7572086;19;20014;-73
2024/03/19 08:23:58;;;;;;;35.05;18.80;;;;;;;;;;7578829;19;20053;-74
2024/03/19 08:26:33;;;;;;;41.85;21.08;;;;;;;;;;7567595;19;20633;-75
2024/03/19 08:29:05;;;;;;;35.50;19.73;;;;;;;;;;7564105;19;20022;-74
2024/03/19 08:31:37;;;;;;;36.05;18.05;;;;;;;;;;7574661;19;20629;-73
2024/03/19 08:34:08;;;;;;;33.05;19.05;;;;;;;;;;7576889;19;20021;-73
2024/03/19 08:36:40;;;;;;;33.03;18.55;;;;;;;;;;7566338;19;20011;-73
2024/03/19 08:39:12;;;;;;;25.48;16.15;;;;;;;;;;7575264;19;20018;-74
2024/03/19 08:41:43;;;;;;;28.42;15.88;;;;;;;;;;7582922;19;20851;-73
2024/03/19 08:44:15;;;;;;;34.75;17.67;;;;;;;;;;7581201;19;20014;-73
2024/03/19 08:46:47;;;;;;;33.33;17.48;;;;;;;;;;7575844;19;20011;-73
2024/03/19 08:49:19;;;;;;;26.63;16.15;;;;;;;;;;7574496;19;20019;-73
2024/03/19 08:51:50;;;;;;;27.27;15.82;;;;;;;;;;7570217;19;20025;-73
2024/03/19 08:54:23;;;;;;;22.63;14.38;;;;;;;;;;7573539;19;20022;-72
2024/03/19 08:56:55;;;;;;;25.52;14.82;;;;;;;;;;7567329;19;20041;-73
2024/03/19 08:59:26;;;;;;;24.40;14.13;;;;;;;;;;7585150;19;21517;-73
2024/03/19 09:01:58;;;;;;;23.67;14.77;;;;;;;;;;7576156;19;20124;-73
2024/03/19 09:04:30;;;;;;;28.25;15.00;;;;;;;;;;7571790;19;20049;-73
2024/03/19 09:07:01;;;;;;;23.70;14.25;;;;;;;;;;7563755;19;20030;-75
2024/03/19 09:09:34;;;;;;;22.85;13.70;;;;;;;;;;7584575;19;20030;-73
2024/03/19 09:12:07;;;;;;;20.17;13.27;;;;;;;;;;7585663;19;20015;-74
2024/03/19 09:14:38;;;;;;;20.70;13.75;;;;;;;;;;7582599;19;20011;-74
2024/03/19 09:17:10;;;;;;;21.02;13.45;;;;;;;;;;7574143;19;20010;-73
2024/03/19 09:19:42;;;;;;;21.48;13.32;;;;;;;;;;7579202;19;20019;-74
2024/03/19 09:22:14;;;;;;;22.77;12.95;;;;;;;;;;7568663;19;20019;-73
2024/03/19 09:24:46;;;;;;;19.05;12.20;;;;;;;;;;7581074;19;20025;-73
2024/03/19 09:27:17;;;;;;;21.00;12.02;;;;;;;;;;7579924;19;20042;-73
2024/03/19 09:29:51;;;;;;;18.40;11.40;;;;;;;;;;7575056;19;20098;-73
2024/03/19 09:32:22;;;;;;;15.25;10.65;;;;;;;;;;7582543;19;20041;-74
2024/03/19 09:34:54;;;;;;;16.92;11.70;;;;;;;;;;7560654;19;20014;-74
2024/03/19 09:37:26;;;;;;;21.60;12.57;;;;;;;;;;7584224;19;20041;-73
2024/03/19 09:39:58;;;;;;;19.35;12.23;;;;;;;;;;7560108;19;20505;-74
2024/03/19 09:42:30;;;;;;;21.85;12.02;;;;;;;;;;7581961;19;20017;-74
2024/03/19 09:45:02;;;;;;;17.23;11.55;;;;;;;;;;7564568;19;20029;-74
2024/03/19 09:47:34;;;;;;;18.98;10.48;;;;;;;;;;7568956;19;20491;-73
2024/03/19 09:50:13;;;;;;;13.30;9.55;;;;;;;;;;7568724;19;20029;-73
2024/03/19 09:52:46;;;;;;;13.52;10.02;;;;;;;;;;7578054;19;20523;-74
2024/03/19 09:55:18;;;;;;;15.88;9.68;;;;;;;;;;7583269;19;22906;-73
2024/03/19 09:57:50;;;;;;;12.13;8.30;;;;;;;;;;7568338;19;20025;-73
2024/03/19 10:00:26;;;;;;;12.30;8.23;;;;;;;;;;7570829;19;20392;-73
2024/03/19 10:02:58;;;;;;;13.85;8.57;;;;;;;;;;7574488;19;20047;-73
2024/03/19 10:05:30;;;;;;;13.27;8.73;;;;;;;;;;7574183;19;20618;-74
2024/03/19 10:08:01;;;;;;;18.25;11.48;;;;;;;;;;7580207;19;20089;-73
2024/03/19 10:10:33;;;;;;;18.42;12.25;;;;;;;;;;7594484;19;20019;-73
2024/03/19 10:13:05;;;;;;;17.45;11.85;;;;;;;;;;7586259;19;20033;-73
2024/03/19 10:15:36;;;;;;;18.25;11.15;;;;;;;;;;7591936;19;20077;-73
2024/03/19 10:18:08;;;;;;;19.50;11.50;;;;;;;;;;7572408;19;20019;-73
2024/03/19 10:20:42;;;;;;;16.42;9.80;;;;;;;;;;7573700;19;20007;-73
2024/03/19 10:23:13;;;;;;;15.18;10.82;;;;;;;;;;7577798;19;20327;-73
2024/03/19 10:25:51;;;;;;;16.10;11.05;;;;;;;;;;7596530;19;20035;-73
2024/03/19 10:28:23;;;;;;;14.30;10.00;;;;;;;;;;7622884;19;20046;-72
2024/03/19 10:30:55;;;;;;;15.13;9.32;;;;;;;;;;7601824;19;20026;-74
2024/03/19 10:33:27;;;;;;;16.38;8.73;;;;;;;;;;7584547;19;20777;-73
2024/03/19 10:35:59;;;;;;;11.57;8.05;;;;;;;;;;7545243;19;20026;-73
2024/03/19 10:38:31;;;;;;;12.90;7.95;;;;;;;;;;7566338;19;20024;-73
2024/03/19 10:41:03;;;;;;;10.65;8.13;;;;;;;;;;7609576;19;20487;-74
2024/03/19 10:43:35;;;;;;;11.93;7.63;;;;;;;;;;7590166;19;20018;-74
2024/03/19 10:46:06;;;;;;;9.75;6.82;;;;;;;;;;7567869;19;20018;-73
2024/03/19 10:48:38;;;;;;;12.88;6.82;;;;;;;;;;7577832;19;20018;-73
2024/03/19 10:51:11;;;;;;;11.70;8.32;;;;;;;;;;7607412;19;20789;-74
2024/03/19 10:53:43;;;;;;;11.45;8.13;;;;;;;;;;7590675;19;20025;-73
2024/03/19 10:56:15;;;;;;;14.63;9.80;;;;;;;;;;7575712;19;20425;-75
2024/03/19 10:58:48;;;;;;;12.60;8.73;;;;;;;;;;7582909;19;20553;-74
2024/03/19 11:01:20;;;;;;;11.65;8.15;;;;;;;;;;7583805;19;20006;-74
2024/03/19 11:03:53;;;;;;;13.88;8.05;;;;;;;;;;7579110;19;20024;-74
2024/03/19 11:06:25;;;;;;;12.18;7.43;;;;;;;;;;7598556;19;20768;-74
2024/03/19 11:08:57;;;;;;;10.88;5.72;;;;;;;;;;7569096;19;20014;-73
2024/03/19 11:11:36;;;;;;;11.88;6.55;;;;;;;;;;7580302;19;20058;-73
2024/03/19 11:14:15;;;;;;;11.02;6.90;;;;;;;;;;7585410;19;20580;-73
2024/03/19 11:16:48;;;;;;;11.15;5.95;;;;;;;;;;7598067;19;20022;-73
2024/03/19 11:19:23;;;;;;;8.82;4.93;;;;;;;;;;7558859;19;20014;-73
2024/03/19 11:21:57;;;;;;;6.90;5.25;;;;;;;;;;7578020;19;20050;-74
2024/03/19 11:24:39;;;;;;;7.57;5.18;;;;;;;;;;7588383;19;20097;-73
2024/03/19 11:27:16;;;;;;;9.18;5.85;;;;;;;;;;7584216;19;20039;-73
2024/03/19 11:29:49;;;;;;;12.38;7.95;;;;;;;;;;7589681;19;20933;-73
2024/03/19 11:32:26;;;;;;;10.50;7.20;;;;;;;;;;7571093;19;20036;-73
2024/03/19 11:34:59;;;;;;;9.48;6.97;;;;;;;;;;7575933;19;20053;-73
2024/03/19 11:37:32;;;;;;;11.40;7.50;;;;;;;;;;7577215;19;20014;-73
2024/03/19 11:40:12;;;;;;;8.80;5.90;;;;;;;;;;7582605;19;20025;-73
2024/03/19 11:42:44;;;;;;;10.73;6.18;;;;;;;;;;7583935;19;20101;-72
2024/03/19 11:45:16;;;;;;;10.15;6.03;;;;;;;;;;7569437;19;20027;-73
2024/03/19 11:47:49;;;;;;;10.32;5.50;;;;;;;;;;7587913;19;20113;-73
2024/03/19 11:50:21;;;;;;;8.38;5.82;;;;;;;;;;7512714;19;20062;-72
2024/03/19 11:52:57;;;;;;;11.88;6.30;;;;;;;;;;7567781;19;20086;-73
2024/03/19 11:55:29;;;;;;;7.93;5.60;;;;;;;;;;7555442;19;20410;-73
2024/03/19 11:58:01;;;;;;;13.73;6.72;;;;;;;;;;7571110;19;20018;-73
2024/03/19 12:00:32;;;;;;;10.48;7.15;;;;;;;;;;7564685;19;20029;-73
2024/03/19 12:03:04;;;;;;;9.80;6.53;;;;;;;;;;7551308;19;20030;-73
2024/03/19 12:05:36;;;;;;;8.00;5.65;;;;;;;;;;7577821;19;20781;-73
2024/03/19 12:08:08;;;;;;;8.77;5.68;;;;;;;;;;7569686;19;20014;-73
2024/03/19 12:10:42;;;;;;;7.55;5.13;;;;;;;;;;7571509;19;20023;-73
2024/03/19 12:13:14;;;;;;;9.35;5.05;;;;;;;;;;7546962;19;20018;-72
2024/03/19 12:15:46;;;;;;;6.93;4.88;;;;;;;;;;7518672;19;20022;-73
2024/03/19 12:18:18;;;;;;;8.18;4.70;;;;;;;;;;7532274;19;20014;-74
2024/03/19 12:20:49;;;;;;;7.88;4.68;;;;;;;;;;7566901;19;20020;-74
2024/03/19 12:23:21;;;;;;;7.22;4.97;;;;;;;;;;7563950;19;21406;-73
2024/03/19 12:25:52;;;;;;;7.40;4.88;;;;;;;;;;7565348;19;20018;-73
2024/03/19 12:28:24;;;;;;;5.68;4.97;;;;;;;;;;7543669;19;20014;-73
2024/03/19 12:30:58;;;;;;;8.88;5.43;;;;;;;;;;7561823;19;20447;-73
2024/03/19 12:33:40;;;;;;;6.07;5.15;;;;;;;;;;7560461;19;20558;-74
2024/03/19 12:36:13;;;;;;;7.35;4.90;;;;;;;;;;7535850;19;20018;-73
2024/03/19 12:38:45;;;;;;;8.80;5.65;;;;;;;;;;7568993;19;20026;-73
2024/03/19 12:41:17;;;;;;;14.75;7.22;;;;;;;;;;7552602;19;20014;-73
2024/03/19 12:43:49;;;;;;;9.23;6.47;;;;;;;;;;7542872;19;20040;-73
2024/03/19 12:46:21;;;;;;;9.95;5.85;;;;;;;;;;7537814;19;20625;-73
2024/03/19 12:48:53;;;;;;;11.35;6.65;;;;;;;;;;7576290;19;20015;-73
2024/03/19 12:51:24;;;;;;;8.68;5.38;;;;;;;;;;7567314;19;21020;-73
2024/03/19 12:53:56;;;;;;;9.07;6.13;;;;;;;;;;7566658;19;21630;-73
2024/03/19 12:56:27;;;;;;;9.45;5.85;;;;;;;;;;7556234;19;20045;-72
2024/03/19 12:58:59;;;;;;;7.60;5.13;;;;;;;;;;7559213;19;20040;-73
2024/03/19 13:01:30;;;;;;;8.48;4.80;;;;;;;;;;7538351;19;20526;-73
2024/03/19 13:04:02;;;;;;;8.02;5.50;;;;;;;;;;7551376;19;20011;-73
2024/03/19 13:06:34;;;;;;;9.05;5.32;;;;;;;;;;7535458;19;20789;-73
2024/03/19 13:09:10;;;;;;;6.53;5.38;;;;;;;;;;7533197;19;20621;-73
2024/03/19 13:11:42;;;;;;;5.40;4.07;;;;;;;;;;7562069;19;20018;-73
2024/03/19 13:14:14;;;;;;;7.80;4.18;;;;;;;;;;7540782;19;20026;-73
2024/03/19 13:16:46;;;;;;;56.92;6.97;;;;;;;;;;7559798;19;20014;-73
2024/03/19 13:19:18;;;;;;;10.68;4.38;;;;;;;;;;7542694;19;20018;-73
2024/03/19 13:21:50;;;;;;;6.90;4.68;;;;;;;;;;7534479;19;20014;-73
2024/03/19 13:24:22;;;;;;;6.63;4.30;;;;;;;;;;7561712;19;20022;-73
2024/03/19 13:26:53;;;;;;;6.40;4.35;;;;;;;;;;7571104;19;20030;-73
2024/03/19 13:29:24;;;;;;;6.25;4.82;;;;;;;;;;7546668;19;20011;-72
2024/03/19 13:31:56;;;;;;;8.90;5.15;;;;;;;;;;7572047;19;20353;-72
2024/03/19 13:34:28;;;;;;;5.72;5.03;;;;;;;;;;7558618;19;20025;-72
2024/03/19 13:37:01;;;;;;;8.17;5.20;;;;;;;;;;7577059;19;20085;-73
2024/03/19 13:39:33;;;;;;;11.07;5.05;;;;;;;;;;7561987;19;20014;-73
2024/03/19 13:42:05;;;;;;;7.93;4.50;;;;;;;;;;7566420;19;20840;-72
2024/03/19 13:44:37;;;;;;;6.22;4.20;;;;;;;;;;7556389;19;20034;-72
2024/03/19 13:47:09;;;;;;;6.07;4.40;;;;;;;;;;7539654;19;20522;-74
2024/03/19 13:49:40;;;;;;;7.20;5.05;;;;;;;;;;7561154;19;20010;-73
2024/03/19 13:52:13;;;;;;;8.13;4.63;;;;;;;;;;7574316;19;20018;-72
2024/03/19 13:54:44;;;;;;;7.55;4.55;;;;;;;;;;7544263;19;20594;-72
2024/03/19 13:57:16;;;;;;;6.15;4.18;;;;;;;;;;7551374;19;20014;-72
2024/03/19 13:59:49;;;;;;;5.95;3.97;;;;;;;;;;7580628;19;20697;-72
2024/03/19 14:02:21;;;;;;;;;;;;;;;;;;7549534;19;20021;-72
2024/03/19 14:04:55;;;;;;;13.70;4.88;;;;;;;;;;7570493;19;19922;-72
2024/03/19 14:07:29;;;;;;;7.40;4.47;;;;;;;;;;7540596;19;20026;-72
2024/03/19 14:10:04;;;;;;;7.70;4.47;;;;;;;;;;7555301;19;20041;-72
2024/03/19 14:12:38;;;;;;;6.05;3.88;;;;;;;;;;7546360;19;20024;-73
2024/03/19 14:15:11;;;;;;;;;;;;;;;;;;7518840;19;20031;-72
2024/03/19 14:17:45;;;;;;;8.98;4.20;;;;;;;;;;7559853;19;19926;-72
2024/03/19 14:20:17;;;;;;;7.07;4.35;;;;;;;;;;7549965;19;20010;-73
2024/03/19 14:22:52;;;;;;;8.05;4.38;;;;;;;;;;7556193;19;20023;-72
2024/03/19 14:25:24;;;;;;;7.82;4.18;;;;;;;;;;7523139;19;20023;-74
2024/03/19 14:27:56;;;;;;;6.70;4.68;;;;;;;;;;7531032;19;20044;-71
2024/03/19 14:30:27;;;;;;;6.25;3.72;;;;;;;;;;7526208;19;20035;-72
2024/03/19 14:33:00;;;;;;;7.20;4.03;;;;;;;;;;7542273;19;21811;-73
2024/03/19 14:35:31;;;;;;;6.53;3.60;;;;;;;;;;7541002;19;20124;-72
2024/03/19 14:38:03;;;;;;;5.68;3.97;;;;;;;;;;7551818;19;20503;-73
2024/03/19 14:40:39;;;;;;;8.73;4.00;;;;;;;;;;7524851;19;22787;-72
2024/03/19 14:43:10;;;;;;;9.15;4.28;;;;;;;;;;7554130;19;20022;-74
2024/03/19 14:45:42;;;;;;;5.88;3.95;;;;;;;;;;7551330;19;20058;-71
2024/03/19 14:48:14;;;;;;;5.25;4.03;;;;;;;;;;7514656;19;21722;-74
2024/03/19 14:50:46;;;;;;;5.90;4.53;;;;;;;;;;7510612;19;20037;-71
2024/03/19 14:53:18;;;;;;;10.43;3.92;;;;;;;;;;7557855;19;20108;-73